ADDS METAR Data INFO
IDs: Format: Raw Decoded Include TAF

Data at: 0919 UTC 13 Dec 2017

KBEC 130915Z AUTO 22009KT 10SM CLR 02/M04 A2986 RMK AO2 T00191040
KBEC 130855Z AUTO 21008KT 10SM CLR 02/M04 A2987 RMK AO2 T00201037
KBEC 130835Z AUTO 21008KT 10SM CLR 02/M04 A2988 RMK AO2 T00201037
KBEC 130815Z AUTO 21008KT 10SM CLR 02/M04 A2988 RMK AO2 T00211036
KBEC 130755Z AUTO 21008KT 10SM CLR 02/M03 A2988 RMK AO2 T00211035
KBEC 130735Z AUTO 21008KT 10SM CLR 03/M03 A2990 RMK AO2 T00251034
KBEC 130715Z AUTO 21007KT 10SM CLR 03/M03 A2990 RMK AO2 T00251032
KBEC 130655Z AUTO 21007KT 10SM CLR 03/M03 A2992 RMK AO2 T00251031
KBEC 130635Z AUTO 21007KT 10SM CLR 03/M03 A2993 RMK AO2 T00251030
KBEC 130615Z AUTO 20006KT 10SM CLR 01/M03 A2994 RMK AO2 T00131033
KBEC 130555Z AUTO 19006KT 10SM CLR 01/M03 A2995 RMK AO2 T00131032 10056 20010 401001017
KBEC 130535Z AUTO 19007KT 10SM CLR 02/M03 A2996 RMK AO2 T00181032
KBEC 130515Z AUTO 20006KT 10SM CLR 03/M03 A2997 RMK AO2 T00321029
KBEC 130455Z AUTO 20008KT 10SM CLR 04/M03 A2998 RMK AO2 T00361026
KBEC 130435Z AUTO 20006KT 10SM CLR 04/M02 A2999 RMK AO2 T00361025
KBEC 130415Z AUTO 20007KT 10SM CLR 04/M02 A3000 RMK AO2 T00381025
KBEC 130355Z AUTO 20008KT 10SM CLR 04/M02 A3001 RMK AO2 T00391024
KBEC 130335Z AUTO 19006KT 10SM CLR 04/M02 A3003 RMK AO2 T00401024
KBEC 130310Z AUTO 19005KT 10SM CLR 04/M02 A3005 RMK AO2 T00441024
KBEC 130255Z AUTO 20005KT 10SM CLR 05/M02 A3005 RMK AO2 T00461024
KBEC 130235Z AUTO 20007KT 10SM CLR 05/M02 A3007 RMK AO2 T00491023
KBEC 130215Z AUTO 21006KT 10SM CLR 05/M02 A3007 RMK AO2 T00461025
KBEC 130155Z AUTO 20006KT 10SM CLR 05/M03 A3008 RMK AO2 T00491026
KBEC 130140Z AUTO 20008KT 10SM CLR 05/M03 A3008 RMK AO2 T00511026
KBEC 130115Z AUTO 21008KT 10SM CLR 05/M02 A3010 RMK AO2 T00531025
KBEC 130055Z AUTO 21006KT 10SM CLR 05/M02 A3010 RMK AO2 T00521025
KBEC 130035Z AUTO 21007KT 10SM CLR 06/M02 A3011 RMK AO2 T00551025
KBEC 130015Z AUTO 21007KT 10SM CLR 06/M03 A3012 RMK AO2 T00551026
KBEC 122355Z AUTO 20006KT 10SM CLR 06/M03 A3012 RMK AO2 T00581026 10100 20047
KBEC 122335Z AUTO 20006KT 10SM CLR 06/M02 A3013 RMK AO2 T00641025
KBEC 122315Z AUTO 21008KT 10SM CLR 07/M02 A3014 RMK AO2 T00711022
KBEC 122255Z AUTO 20006G14KT 10SM CLR 08/M02 A3015 RMK AO2 T00821022
KBEC 122235Z AUTO 21007KT 10SM CLR 09/M02 A3016 RMK AO2 T00901020
KBEC 122220Z AUTO 20010KT 10SM CLR 10/M02 A3017 RMK AO2 T00951021
KBEC 122155Z AUTO 25009KT 10SM CLR 10/M03 A3018 RMK AO2 T00981028
KBEC 122135Z AUTO 23006KT 10SM CLR 10/M03 A3019 RMK AO2 T00991027
KBEC 122115Z AUTO 23009KT 10SM CLR 10/M02 A3020 RMK AO2 T00951022
KBEC 122055Z AUTO 24006KT 10SM CLR 09/M02 A3022 RMK AO2 T00931022
KBEC 122035Z AUTO 22011G14KT 10SM CLR 09/M02 A3022 RMK AO2 T00921019
KBEC 122015Z AUTO 23006KT 10SM CLR 08/M02 A3024 RMK AO2 T00831020
KBEC 121955Z AUTO 25007KT 10SM CLR 08/M02 A3025 RMK AO2 T00811020
KBEC 121935Z AUTO 28007KT 10SM CLR 08/M02 A3027 RMK AO2 T00771020
KBEC 121915Z AUTO 26006KT 10SM CLR 07/M02 A3027 RMK AO2 T00701023
KBEC 121855Z AUTO 28006KT 10SM CLR 07/M03 A3029 RMK AO2 T00651026
KBEC 121835Z AUTO 27007KT 210V310 10SM CLR 06/M03 A3031 RMK AO2 T00591026
KBEC 121815Z AUTO 25004KT 10SM CLR 06/M03 A3033 RMK AO2 T00571027
KBEC 121755Z AUTO 34004KT 10SM CLR 04/M03 A3034 RMK AO2 T00441031 10047 21017
KBEC 121735Z AUTO 32004KT 10SM CLR 04/M03 A3036 RMK AO2 T00411033
KBEC 121715Z AUTO 28007KT 10SM CLR 04/M03 A3038 RMK AO2 T00401034
KBEC 121655Z AUTO 31006KT 10SM CLR 03/M03 A3039 RMK AO2 T00341035
KBEC 121635Z AUTO 29004KT 10SM CLR 03/M03 A3039 RMK AO2 T00291035
KBEC 121615Z AUTO 30006KT 10SM CLR 03/M04 A3039 RMK AO2 T00251037
KBEC 121555Z AUTO 34004KT 10SM CLR 02/M04 A3039 RMK AO2 T00151041
KBEC 121535Z AUTO 33006KT 10SM CLR 01/M04 A3039 RMK AO2 T00111041
KBEC 121515Z AUTO 34007KT 10SM CLR 01/M04 A3039 RMK AO2 T00051042
KBEC 121455Z AUTO 31006KT 10SM CLR 00/M04 A3039 RMK AO2 T10011045
KBEC 121435Z AUTO 32006KT 10SM CLR M01/M05 A3039 RMK AO2 T10071047
KBEC 121415Z AUTO 33005KT 10SM CLR M01/M05 A3039 RMK AO2 T10131050
KBEC 121355Z AUTO 31007KT 10SM CLR M02/M05 A3039 RMK AO2 T10161051
KBEC 121335Z AUTO 32007KT 10SM CLR M02/M05 A3038 RMK AO2 T10161052
KBEC 121315Z AUTO 31007KT 10SM CLR M01/M05 A3038 RMK AO2 T10151049
KBEC 121255Z AUTO 29006KT 10SM CLR M01/M05 A3038 RMK AO2 T10131050
KBEC 121235Z AUTO 31005KT 10SM CLR M01/M05 A3038 RMK AO2 T10111049
KBEC 121215Z AUTO 32005KT 10SM CLR 00/M05 A3038 RMK AO2 T10041048
KBEC 121155Z AUTO 34006KT 10SM CLR 00/M05 A3037 RMK AO2 T00001046 10046 20000
KBEC 121135Z AUTO 33005KT 10SM CLR 00/M04 A3037 RMK AO2 T00001045
KBEC 121115Z AUTO 35009KT 10SM CLR 00/M05 A3036 RMK AO2 T00001047
KBEC 121055Z AUTO 36009KT 10SM CLR 00/M05 A3037 RMK AO2 T00001046
KBEC 121035Z AUTO 35008KT 10SM CLR 00/M04 A3037 RMK AO2 T00001045
KBEC 121015Z AUTO 35008KT 10SM CLR 00/M04 A3037 RMK AO2 T00031043
KBEC 120955Z AUTO 36010KT 10SM CLR 01/M04 A3037 RMK AO2 T00061042
KBEC 120935Z AUTO 35006KT 10SM CLR 01/M04 A3037 RMK AO2 T00061042
KBEC 120915Z AUTO 34006KT 10SM CLR 02/M04 A3038 RMK AO2 T00181037
KBEC 120855Z AUTO 34006KT 10SM CLR 02/M03 A3038 RMK AO2 T00201035
KBEC 120835Z AUTO 33004KT 10SM CLR 02/M03 A3037 RMK AO2 T00211035
KBEC 120815Z AUTO 34006KT 10SM CLR 03/M03 A3036 RMK AO2 T00261031
KBEC 120755Z AUTO 33004KT 10SM CLR 02/M03 A3035 RMK AO2 T00201027
KBEC 120735Z AUTO 30004KT 10SM CLR 02/M03 A3035 RMK AO2 T00241027
KBEC 120715Z AUTO 32004KT 10SM CLR 03/M03 A3034 RMK AO2 T00281027
KBEC 120655Z AUTO 34007G15KT 10SM CLR 04/M03 A3034 RMK AO2 T00431026
KBEC 120635Z AUTO 34008G15KT 10SM SCT037 05/M02 A3034 RMK AO2 T00451025
KBEC 120615Z AUTO 34011G17KT 10SM OVC037 05/M02 A3034 RMK AO2 T00451023
KBEC 120555Z AUTO 35008G16KT 10SM BKN039 05/M02 A3034 RMK AO2 T00471022 10104 20042 401800021
KBEC 120535Z AUTO 35009KT 10SM SCT039 04/M02 A3033 RMK AO2 T00421023
KBEC 120515Z AUTO 35012G18KT 10SM CLR 05/M02 A3033 RMK AO2 T00471021
KBEC 120455Z AUTO 34012G16KT 10SM CLR 05/M02 A3032 RMK AO2 T00501023
KBEC 120435Z AUTO 34014G20KT 10SM CLR 05/M02 A3031 RMK AO2 T00521025
KBEC 120415Z AUTO 34014G18KT 10SM CLR 06/M02 A3030 RMK AO2 T00551025
KBEC 120355Z AUTO 34016G22KT 10SM CLR 06/M02 A3029 RMK AO2 T00581025
KBEC 120335Z AUTO 34016G21KT 10SM CLR 06/M02 A3029 RMK AO2 T00601025
KBEC 120315Z AUTO 35016G25KT 10SM CLR 06/M02 A3028 RMK AO2 T00631025
KBEC 120255Z AUTO 35018G27KT 10SM CLR 07/M02 A3027 RMK AO2 T00651024
KBEC 120235Z AUTO 35016G23KT 10SM CLR 07/M02 A3027 RMK AO2 T00681023
KBEC 120215Z AUTO 34020G27KT 10SM CLR 07/M02 A3025 RMK AO2 T00741025
KBEC 120155Z AUTO 35017G29KT 10SM CLR 08/M03 A3025 RMK AO2 T00801030
KBEC 120135Z AUTO 35019G28KT 10SM CLR 09/M03 A3023 RMK AO2 T00851030
KBEC 120115Z AUTO 35017G29KT 10SM CLR 09/M03 A3022 RMK AO2 T00901033
KBEC 120055Z AUTO 35019G26KT 10SM CLR 09/M03 A3021 RMK AO2 T00901035
KBEC 120035Z AUTO 35018G23KT 10SM CLR 10/M04 A3019 RMK AO2 T00951037
KBEC 120015Z AUTO 35013G18KT 10SM CLR 10/M04 A3017 RMK AO2 T00991041
KBEC 112355Z AUTO 35011G17KT 10SM CLR 11/M05 A3017 RMK AO2 T01051049 10180 20105
KBEC 112335Z AUTO 35014G21KT 10SM CLR 11/M05 A3016 RMK AO2 T01071054
KBEC 112315Z AUTO 36013G20KT 10SM CLR 12/M06 A3014 RMK AO2 T01161065
KBEC 112255Z AUTO 34011G20KT 10SM CLR 13/M08 A3013 RMK AO2 T01301080
KBEC 112235Z AUTO 34014G20KT 10SM CLR 13/M08 A3012 RMK AO2 T01341084
KBEC 112215Z AUTO 34013G21KT 10SM CLR 14/M09 A3011 RMK AO2 T01391088
KBEC 112155Z AUTO 33012G23KT 10SM CLR 15/M09 A3011 RMK AO2 T01471094
KBEC 112135Z AUTO 34020G29KT 10SM CLR 16/M09 A3009 RMK AO2 T01551095